Time;durP1;ratioP1;P1;durP2;ratioP2;P2;SDS_P1;SDS_P2;PMS_P1;PMS_P2;Temp;Humidity;BMP_temperature;BMP_pressure;BME280_temperature;BME280_humidity;BME280_pressure;Samples;Min_cycle;Max_cycle;Signal;HPM_P1;HPM_P2
2021/12/11 00:02:16;;;;;;;10.35;8.10;;;10.10;63.70;;;;;;4807798;29;20632;-74
2021/12/11 00:04:46;;;;;;;12.77;8.90;;;10.10;63.70;;;;;;4808045;29;20078;-74
2021/12/11 00:07:15;;;;;;;14.25;8.80;;;10.10;63.70;;;;;;4807645;29;20150;-74
2021/12/11 00:09:46;;;;;;;11.90;8.75;;;10.10;63.80;;;;;;4807634;29;20096;-73
2021/12/11 00:12:15;;;;;;;10.85;8.35;;;10.10;63.60;;;;;;4807501;29;20469;-74
2021/12/11 00:14:59;;;;;;;10.73;8.10;;;10.10;64.10;;;;;;4808245;29;20082;-73
2021/12/11 00:17:27;;;;;;;;;;;10.10;63.90;;;;;;4792413;29;20054;-75
2021/12/11 00:19:53;;;;;;;10.98;8.73;;;10.10;63.70;;;;;;4807693;29;19936;-74
2021/12/11 00:22:23;;;;;;;12.07;9.05;;;10.10;63.70;;;;;;4791917;29;20050;-75
2021/12/11 00:24:49;;;;;;;10.23;8.48;;;10.10;63.50;;;;;;4808909;29;20123;-74
2021/12/11 00:27:23;;;;;;;11.63;9.57;;;10.00;63.70;;;;;;4811123;29;20082;-73
2021/12/11 00:29:49;;;;;;;;;;;10.00;63.60;;;;;;4811452;29;20050;-75
2021/12/11 00:32:30;;;;;;;12.68;9.68;;;10.00;63.40;;;;;;4811044;29;19925;-74
2021/12/11 00:35:10;;;;;;;13.05;8.00;;;9.90;63.70;;;;;;4811040;29;20046;-73
2021/12/11 00:37:36;;;;;;;10.68;8.82;;;9.90;63.90;;;;;;4810653;29;20084;-75
2021/12/11 00:40:25;;;;;;;10.68;8.80;;;9.90;63.70;;;;;;4809659;29;20062;-74
2021/12/11 00:42:57;;;;;;;11.25;8.75;;;9.80;63.40;;;;;;4794753;29;20061;-73
2021/12/11 00:45:28;;;;;;;10.63;8.95;;;9.80;63.40;;;;;;4810024;29;20055;-73
2021/12/11 00:48:07;;;;;;;10.95;8.32;;;9.70;64.00;;;;;;4810288;29;20451;-75
2021/12/11 00:50:40;;;;;;;10.88;9.05;;;9.80;64.30;;;;;;4794864;29;20138;-75
2021/12/11 00:53:09;;;;;;;12.30;9.13;;;9.80;63.70;;;;;;4810645;29;20065;-75
2021/12/11 00:55:39;;;;;;;13.45;9.07;;;9.80;63.90;;;;;;4810715;29;20070;-74
2021/12/11 00:58:16;;;;;;;13.35;9.68;;;9.80;63.70;;;;;;4794743;29;20347;-73
2021/12/11 01:01:07;;;;;;;13.93;10.00;;;9.80;64.10;;;;;;4794163;29;20097;-74
2021/12/11 01:03:50;;;;;;;12.55;9.18;;;9.80;64.30;;;;;;4810605;29;20050;-75
2021/12/11 01:06:23;;;;;;;12.60;8.95;;;9.80;64.10;;;;;;4809858;29;20062;-73
2021/12/11 01:08:58;;;;;;;12.93;10.40;;;9.80;64.30;;;;;;4810058;29;20130;-73
2021/12/11 01:11:40;;;;;;;11.02;8.82;;;9.80;64.00;;;;;;4810563;29;20137;-74
2021/12/11 01:14:37;;;;;;;12.85;10.13;;;9.80;63.90;;;;;;4794743;29;20055;-74
2021/12/11 01:17:13;;;;;;;13.75;10.07;;;9.70;63.70;;;;;;4810307;29;20061;-74
2021/12/11 01:19:44;;;;;;;12.73;9.30;;;9.70;63.70;;;;;;4809830;29;20042;-73
2021/12/11 01:22:47;;;;;;;12.70;9.20;;;9.60;63.30;;;;;;4810248;29;20147;-74
2021/12/11 01:25:20;;;;;;;12.02;9.65;;;9.50;63.20;;;;;;4807774;29;20081;-73
2021/12/11 01:27:51;;;;;;;13.90;10.48;;;9.60;63.60;;;;;;4810005;29;20046;-73
2021/12/11 01:30:26;;;;;;;11.90;9.10;;;9.50;63.00;;;;;;4809847;29;20054;-72
2021/12/11 01:32:52;;;;;;;11.35;9.50;;;9.50;63.20;;;;;;4794234;29;20237;-75
2021/12/11 01:35:20;;;;;;;11.18;9.80;;;9.50;63.40;;;;;;4793745;29;20422;-76
2021/12/11 01:37:49;;;;;;;12.55;10.15;;;9.50;63.20;;;;;;4809613;29;20058;-74
2021/12/11 01:40:20;;;;;;;13.10;10.40;;;9.50;63.30;;;;;;4809688;29;20059;-74
2021/12/11 01:42:46;;;;;;;11.70;9.23;;;9.50;63.80;;;;;;4809796;29;20058;-74
2021/12/11 01:45:15;;;;;;;12.70;10.00;;;9.50;63.60;;;;;;4793881;29;20093;-74
2021/12/11 01:47:45;;;;;;;12.27;9.90;;;9.50;63.40;;;;;;4809657;29;20054;-74
2021/12/11 01:50:13;;;;;;;12.63;9.95;;;9.50;63.50;;;;;;4809953;29;20055;-73
2021/12/11 01:52:55;;;;;;;11.65;9.85;;;9.50;63.50;;;;;;4809887;29;20097;-74
2021/12/11 01:55:45;;;;;;;14.63;9.93;;;9.50;63.60;;;;;;4809720;29;20413;-73
2021/12/11 01:58:15;;;;;;;12.93;10.32;;;9.50;63.30;;;;;;4809730;29;20058;-73
2021/12/11 02:00:41;;;;;;;12.68;10.00;;;9.40;63.20;;;;;;4809413;29;20059;-74
2021/12/11 02:03:12;;;;;;;14.30;10.25;;;9.40;63.10;;;;;;4793666;29;20459;-73
2021/12/11 02:05:40;;;;;;;12.60;10.15;;;9.40;63.10;;;;;;4793711;29;20521;-74
2021/12/11 02:08:10;;;;;;;12.00;9.55;;;9.30;62.60;;;;;;4809453;29;20058;-73
2021/12/11 02:10:44;;;;;;;12.27;9.70;;;9.30;62.80;;;;;;4809212;29;20138;-74
2021/12/11 02:13:26;;;;;;;14.88;10.30;;;9.30;63.30;;;;;;4809239;29;20055;-75
2021/12/11 02:15:54;;;;;;;13.23;10.07;;;9.30;63.60;;;;;;4809157;29;20065;-74
2021/12/11 02:18:27;;;;;;;11.93;9.98;;;9.40;63.80;;;;;;4809409;29;20051;-74
2021/12/11 02:20:57;;;;;;;11.73;9.93;;;9.40;63.80;;;;;;4809020;29;20054;-74
2021/12/11 02:23:25;;;;;;;12.90;10.35;;;9.40;63.40;;;;;;4793118;29;20602;-74
2021/12/11 02:25:53;;;;;;;12.60;10.05;;;9.40;64.00;;;;;;4777932;29;20092;-73
2021/12/11 02:28:27;;;;;;;14.07;9.75;;;9.40;63.60;;;;;;4809245;29;20055;-75
2021/12/11 02:31:20;;;;;;;13.15;10.20;;;9.40;63.70;;;;;;4809007;29;20046;-74
2021/12/11 02:34:25;;;;;;;12.38;10.32;;;9.40;63.70;;;;;;4809114;29;20058;-72
2021/12/11 02:36:54;;;;;;;;;;;9.40;64.10;;;;;;4788486;29;20058;-74
2021/12/11 02:39:28;;;;;;;14.25;10.38;;;9.40;63.90;;;;;;4808816;29;19925;-73
2021/12/11 02:42:23;;;;;;;13.82;10.35;;;9.40;63.50;;;;;;4792867;29;20503;-74
2021/12/11 02:45:07;;;;;;;14.13;10.10;;;9.40;63.90;;;;;;4804896;29;20069;-72
2021/12/11 02:47:46;;;;;;;;;;;9.40;63.70;;;;;;4808470;29;20100;-74
2021/12/11 02:50:17;;;;;;;12.60;10.10;;;9.20;63.70;;;;;;4792742;29;20402;-72
2021/12/11 02:52:51;;;;;;;13.45;10.85;;;9.20;63.60;;;;;;4808834;29;20114;-74
2021/12/11 02:55:26;;;;;;;15.52;10.35;;;9.20;63.70;;;;;;4808586;29;20482;-75
2021/12/11 02:57:59;;;;;;;13.90;10.52;;;9.30;64.00;;;;;;4792695;29;20118;-75
2021/12/11 03:00:41;;;;;;;13.70;9.70;;;9.30;64.20;;;;;;4808637;29;20046;-73
2021/12/11 03:03:09;;;;;;;14.35;10.52;;;9.30;63.90;;;;;;4808532;29;20066;-72
2021/12/11 03:05:47;;;;;;;12.57;9.55;;;9.30;63.60;;;;;;4808569;29;20133;-73
2021/12/11 03:08:17;;;;;;;13.13;10.60;;;9.30;63.90;;;;;;4808472;29;20379;-74
2021/12/11 03:10:47;;;;;;;12.82;10.68;;;9.30;63.30;;;;;;4808462;29;20057;-74
2021/12/11 03:13:14;;;;;;;13.18;10.38;;;9.20;63.20;;;;;;4808426;29;20050;-74
2021/12/11 03:15:40;;;;;;;13.45;9.75;;;9.20;63.30;;;;;;4808087;29;20321;-73
2021/12/11 03:18:07;;;;;;;12.45;9.45;;;9.10;63.20;;;;;;4808076;29;20066;-74
2021/12/11 03:20:37;;;;;;;12.73;10.95;;;9.10;62.50;;;;;;4807962;29;20138;-74
2021/12/11 03:23:04;;;;;;;12.82;9.80;;;9.10;62.60;;;;;;4808254;29;20097;-74
2021/12/11 03:25:30;;;;;;;14.70;10.52;;;9.10;62.50;;;;;;4791719;29;20078;-75
2021/12/11 03:27:57;;;;;;;12.32;9.50;;;9.00;62.40;;;;;;4808203;29;20133;-74
2021/12/11 03:30:31;;;;;;;11.18;8.98;;;9.00;62.90;;;;;;4807710;29;20471;-75
2021/12/11 03:33:03;;;;;;;14.20;9.52;;;9.00;62.20;;;;;;4807722;29;20108;-73
2021/12/11 03:35:29;;;;;;;10.80;9.07;;;9.00;62.00;;;;;;4792248;29;20055;-73
2021/12/11 03:37:56;;;;;;;12.82;10.02;;;9.00;62.10;;;;;;4807952;29;20051;-72
2021/12/11 03:40:23;;;;;;;11.13;9.38;;;9.00;62.00;;;;;;4807942;29;20138;-73
2021/12/11 03:42:51;;;;;;;10.75;9.07;;;8.90;61.80;;;;;;4792077;29;20062;-73
2021/12/11 03:45:25;;;;;;;12.18;9.48;;;8.80;62.20;;;;;;4792008;29;20055;-73
2021/12/11 03:47:59;;;;;;;11.82;8.93;;;8.90;62.30;;;;;;4808563;29;20058;-72
2021/12/11 03:50:26;;;;;;;12.02;9.73;;;8.80;62.60;;;;;;4792109;29;20073;-75
2021/12/11 03:52:53;;;;;;;13.18;9.75;;;8.80;63.00;;;;;;4792122;29;20119;-75
2021/12/11 03:55:25;;;;;;;13.98;9.23;;;8.80;62.70;;;;;;4792588;29;20066;-73
2021/12/11 03:57:57;;;;;;;12.05;9.70;;;8.80;62.80;;;;;;4792261;29;20055;-73
2021/12/11 04:00:27;;;;;;;14.02;9.98;;;8.70;62.80;;;;;;4811302;29;20050;-74
2021/12/11 04:03:00;;;;;;;12.00;9.57;;;8.70;62.80;;;;;;4811388;29;20088;-74
2021/12/11 04:05:25;;;;;;;11.00;9.23;;;8.60;62.70;;;;;;4795684;29;20464;-74
2021/12/11 04:07:52;;;;;;;11.55;9.40;;;8.50;62.70;;;;;;4812037;29;20058;-74
2021/12/11 04:10:20;;;;;;;11.88;9.50;;;8.40;63.00;;;;;;4811171;29;20061;-75
2021/12/11 04:12:48;;;;;;;13.00;10.20;;;8.40;63.40;;;;;;4811592;29;20157;-73
2021/12/11 04:15:15;;;;;;;13.48;9.88;;;8.50;63.90;;;;;;4811339;29;20360;-73
2021/12/11 04:17:41;;;;;;;13.50;9.98;;;8.60;63.80;;;;;;4811547;29;20135;-74
2021/12/11 04:20:13;;;;;;;12.73;9.35;;;8.60;63.60;;;;;;4811030;29;20528;-73
2021/12/11 04:22:40;;;;;;;12.80;9.20;;;8.70;63.50;;;;;;4795087;29;20061;-73
2021/12/11 04:25:09;;;;;;;10.98;9.00;;;8.70;63.20;;;;;;4811233;29;20059;-73
2021/12/11 04:27:35;;;;;;;12.25;8.88;;;8.70;63.40;;;;;;4811377;29;20069;-72
2021/12/11 04:30:08;;;;;;;12.38;9.90;;;8.60;62.90;;;;;;4795380;29;20382;-74
2021/12/11 04:32:34;;;;;;;13.02;9.70;;;8.70;63.00;;;;;;4810968;29;20047;-74
2021/12/11 04:35:03;;;;;;;10.32;8.45;;;8.60;62.60;;;;;;4811615;29;20124;-72
2021/12/11 04:37:30;;;;;;;12.57;9.55;;;8.70;62.70;;;;;;4810852;29;20069;-72
2021/12/11 04:40:03;;;;;;;12.52;9.25;;;8.60;62.60;;;;;;4794341;29;20054;-73
2021/12/11 04:44:58;;;;;;;11.60;8.77;;;8.70;62.20;;;;;;4810915;29;20530;-74
2021/12/11 04:47:53;;;;;;;12.68;9.32;;;8.70;62.80;;;;;;4794518;29;20061;-73
2021/12/11 04:50:40;;;;;;;13.05;9.40;;;8.70;62.60;;;;;;4794507;29;20456;-72
2021/12/11 04:53:20;;;;;;;13.25;8.90;;;8.60;62.80;;;;;;4810759;29;20186;-73
2021/12/11 04:56:25;;;;;;;10.13;8.70;;;8.60;62.60;;;;;;4810726;29;20055;-74
2021/12/11 05:04:43;;;;;;;12.65;9.00;;;8.60;62.50;;;;;;4794621;29;20444;-73
2021/12/11 05:07:29;;;;;;;14.27;9.33;;;8.60;62.40;;;;;;4810779;29;20073;-73
2021/12/11 05:10:19;;;;;;;13.48;9.23;;;8.60;62.70;;;;;;4809881;29;20055;-74
2021/12/11 05:12:50;;;;;;;12.85;9.45;;;8.60;62.50;;;;;;4810211;29;20054;-73
2021/12/11 05:15:18;;;;;;;11.18;9.02;;;8.60;62.50;;;;;;4794423;29;20046;-73
2021/12/11 05:17:45;;;;;;;11.18;9.00;;;8.60;62.40;;;;;;4810253;29;20063;-72
2021/12/11 05:20:14;;;;;;;11.63;9.85;;;8.50;62.20;;;;;;4810296;29;20412;-73
2021/12/11 05:22:40;;;;;;;11.65;8.48;;;8.50;62.40;;;;;;4809740;29;20112;-74
2021/12/11 05:25:08;;;;;;;12.52;8.63;;;8.50;62.50;;;;;;4810417;29;20474;-76
2021/12/11 05:27:34;;;;;;;12.48;9.25;;;8.50;62.50;;;;;;4809664;29;20050;-74
2021/12/11 05:30:00;;;;;;;12.02;9.20;;;8.50;62.20;;;;;;4794196;29;20451;-73
2021/12/11 05:32:26;;;;;;;11.07;9.05;;;8.50;62.50;;;;;;4794499;29;20046;-76
2021/12/11 05:34:53;;;;;;;12.98;9.02;;;8.40;62.00;;;;;;4810610;29;20054;-73
2021/12/11 05:37:20;;;;;;;13.10;9.15;;;8.40;62.40;;;;;;4810027;29;20051;-75
2021/12/11 05:39:46;;;;;;;11.43;8.95;;;8.40;62.30;;;;;;4809947;29;20448;-73
2021/12/11 05:42:12;;;;;;;12.35;8.73;;;8.50;62.40;;;;;;4809515;29;20083;-74
2021/12/11 05:44:38;;;;;;;11.27;7.70;;;8.40;62.10;;;;;;4809472;29;20352;-73
2021/12/11 05:47:05;;;;;;;12.68;8.23;;;8.50;63.50;;;;;;4793786;29;20127;-73
2021/12/11 05:49:33;;;;;;;13.45;8.88;;;8.80;64.30;;;;;;4809148;29;20042;-76
2021/12/11 05:52:00;;;;;;;12.45;9.40;;;9.10;63.20;;;;;;4809411;29;20042;-76
2021/12/11 05:54:27;;;;;;;16.38;10.10;;;9.40;61.70;;;;;;4809431;29;20050;-75
2021/12/11 05:56:59;;;;;;;12.18;9.43;;;9.70;60.00;;;;;;4809534;29;20090;-72
2021/12/11 05:59:26;;;;;;;12.15;9.68;;;9.80;58.10;;;;;;4809526;29;20050;-72
2021/12/11 06:02:00;;;;;;;14.68;9.95;;;9.90;57.30;;;;;;4778849;29;20452;-73
2021/12/11 06:04:33;;;;;;;11.75;9.38;;;10.00;56.60;;;;;;4793461;29;20487;-73
2021/12/11 06:07:00;;;;;;;11.55;8.50;;;10.10;56.80;;;;;;4793225;29;20050;-73
2021/12/11 06:09:27;;;;;;;13.95;9.15;;;10.30;56.70;;;;;;4809313;29;20051;-72
2021/12/11 06:11:56;;;;;;;11.25;8.38;;;10.40;56.70;;;;;;4793484;29;20387;-75
2021/12/11 06:14:27;;;;;;;14.90;9.63;;;10.60;56.40;;;;;;4792589;29;20082;-76
2021/12/11 06:16:56;;;;;;;14.55;8.00;;;10.90;57.20;;;;;;4808699;29;20112;-71
2021/12/11 06:19:22;;;;;;;12.60;6.57;;;11.30;57.20;;;;;;4807098;29;20039;-76
2021/12/11 06:21:50;;;;;;;13.30;7.25;;;11.70;57.50;;;;;;4806971;29;20035;-72
2021/12/11 06:24:16;;;;;;;12.60;6.18;;;12.00;57.20;;;;;;4808953;29;20059;-73
2021/12/11 06:26:41;;;;;;;11.98;6.68;;;12.30;57.20;;;;;;4809229;29;20061;-75
2021/12/11 06:29:07;;;;;;;14.70;6.72;;;12.50;57.30;;;;;;4807985;29;20043;-74
2021/12/11 06:31:33;;;;;;;15.25;5.50;;;12.80;57.70;;;;;;4809033;29;20442;-74
2021/12/11 06:34:00;;;;;;;12.40;5.32;;;13.00;58.00;;;;;;4808168;29;20046;-74
2021/12/11 06:36:27;;;;;;;11.93;5.75;;;13.20;57.70;;;;;;4808231;29;20049;-75
2021/12/11 06:39:01;;;;;;;14.38;5.05;;;13.40;57.50;;;;;;4808889;29;20062;-74
2021/12/11 06:41:36;;;;;;;16.25;4.72;;;13.60;57.60;;;;;;4808736;29;20069;-76
2021/12/11 06:44:03;;;;;;;10.18;4.75;;;13.70;55.80;;;;;;4808584;29;20058;-77
2021/12/11 06:46:30;;;;;;;10.07;3.90;;;13.90;57.50;;;;;;4778465;29;20055;-76
2021/12/11 06:48:57;;;;;;;17.35;4.70;;;14.00;57.90;;;;;;4792698;29;20122;-73
2021/12/11 06:51:24;;;;;;;17.00;4.65;;;14.10;58.20;;;;;;4808418;29;20054;-73
2021/12/11 06:53:53;;;;;;;8.80;4.68;;;14.30;58.30;;;;;;4808307;29;20061;-70
2021/12/11 06:56:21;;;;;;;13.70;4.22;;;14.30;58.20;;;;;;4808121;29;20051;-73
2021/12/11 06:58:47;;;;;;;11.35;4.00;;;14.40;58.30;;;;;;4808400;29;20062;-78
2021/12/11 07:01:14;;;;;;;15.95;4.30;;;14.50;58.00;;;;;;4808506;29;20058;-76
2021/12/11 07:03:40;;;;;;;12.10;4.68;;;14.60;57.90;;;;;;4808142;29;20047;-74
2021/12/11 07:06:08;;;;;;;10.85;3.80;;;14.60;57.60;;;;;;4808291;29;20062;-75
2021/12/11 07:08:36;;;;;;;14.95;6.85;;;14.70;57.60;;;;;;4807430;29;20055;-79
2021/12/11 07:11:02;;;;;;;24.05;6.57;;;13.80;54.50;;;;;;4792510;29;20094;-76
2021/12/11 07:13:28;;;;;;;17.45;6.30;;;13.40;57.00;;;;;;4792330;29;20159;-75
2021/12/11 07:15:56;;;;;;;25.35;5.85;;;13.10;59.60;;;;;;4808173;29;20070;-74
2021/12/11 07:18:23;;;;;;;31.98;6.47;;;13.50;59.90;;;;;;4807466;29;20063;-76
2021/12/11 07:20:49;;;;;;;28.23;5.82;;;13.90;59.60;;;;;;4791987;29;20075;-75
2021/12/11 07:23:15;;;;;;;24.40;6.22;;;14.20;59.10;;;;;;4808275;29;20047;-75
2021/12/11 07:25:52;;;;;;;27.83;7.22;;;14.50;57.90;;;;;;4807738;29;20073;-77
2021/12/11 07:28:20;;;;;;;38.55;7.22;;;14.60;57.70;;;;;;4807145;29;20372;-78
2021/12/11 07:30:51;;;;;;;32.05;6.70;;;14.70;57.10;;;;;;4777203;29;20047;-81
2021/12/11 07:33:18;;;;;;;33.60;6.20;;;14.90;57.10;;;;;;4776651;29;20086;-75
2021/12/11 07:35:47;;;;;;;32.38;6.13;;;15.10;56.70;;;;;;4807844;29;20118;-78
2021/12/11 07:38:13;;;;;;;26.08;7.40;;;15.20;56.70;;;;;;4807904;29;20042;-77
2021/12/11 07:40:48;;;;;;;25.17;5.80;;;15.40;56.70;;;;;;4808222;29;20428;-78
2021/12/11 07:43:16;;;;;;;18.92;5.18;;;15.50;56.40;;;;;;4807606;29;20058;-78
2021/12/11 07:45:43;;;;;;;18.88;5.43;;;15.70;56.20;;;;;;4792491;29;20046;-76
2021/12/11 07:48:10;;;;;;;18.92;4.32;;;15.70;55.90;;;;;;4792208;29;20058;-72
2021/12/11 07:50:36;;;;;;;19.92;4.47;;;15.80;55.70;;;;;;4807801;29;20047;-72
2021/12/11 07:53:03;;;;;;;15.13;5.53;;;15.70;55.60;;;;;;4807611;29;20099;-72
2021/12/11 07:55:30;;;;;;;18.92;4.95;;;15.80;55.70;;;;;;4792541;29;20070;-72
2021/12/11 07:57:56;;;;;;;12.02;4.25;;;15.70;55.80;;;;;;4808244;29;20130;-72
2021/12/11 08:00:25;;;;;;;14.27;3.70;;;15.70;55.90;;;;;;4806771;29;20070;-75
2021/12/11 08:02:52;;;;;;;17.75;4.13;;;15.80;55.80;;;;;;4807462;29;20207;-78
2021/12/11 08:05:18;;;;;;;26.77;5.07;;;15.80;56.00;;;;;;4776639;29;20145;-73
2021/12/11 08:07:45;;;;;;;21.98;4.32;;;15.80;55.60;;;;;;4807869;29;20066;-74
2021/12/11 08:10:16;;;;;;;16.17;4.78;;;15.80;54.70;;;;;;4791445;29;20061;-74
2021/12/11 08:12:42;;;;;;;16.05;4.25;;;15.60;56.00;;;;;;4807194;29;20359;-75
2021/12/11 08:15:10;;;;;;;18.80;4.18;;;15.70;56.20;;;;;;4807632;29;20461;-76
2021/12/11 08:17:36;;;;;;;13.05;4.53;;;15.80;56.10;;;;;;4789456;29;20051;-76
2021/12/11 08:20:06;;;;;;;13.73;3.58;;;15.90;55.80;;;;;;4797045;29;20047;-74
2021/12/11 08:22:32;;;;;;;20.10;4.20;;;15.80;55.20;;;;;;4805356;29;20133;-77
2021/12/11 08:24:57;;;;;;;17.15;4.10;;;15.90;54.90;;;;;;4791299;29;20142;-75
2021/12/11 08:27:23;;;;;;;16.00;4.68;;;15.80;55.00;;;;;;4791639;29;20055;-77
2021/12/11 08:29:52;;;;;;;13.55;4.05;;;15.80;55.10;;;;;;4807270;29;20059;-75
2021/12/11 08:32:19;;;;;;;18.20;3.75;;;15.70;55.10;;;;;;4807772;29;20051;-74
2021/12/11 08:34:46;;;;;;;11.63;3.97;;;15.60;55.10;;;;;;4806862;29;20059;-75
2021/12/11 08:37:16;;;;;;;15.88;4.25;;;15.60;55.30;;;;;;4807895;29;20458;-76
2021/12/11 08:39:43;;;;;;;12.43;3.83;;;15.50;55.30;;;;;;4807323;29;20069;-73
2021/12/11 08:42:12;;;;;;;9.63;3.63;;;15.40;55.40;;;;;;4807265;29;20452;-79
2021/12/11 08:44:42;;;;;;;10.73;3.97;;;15.30;55.40;;;;;;4806428;29;20101;-78
2021/12/11 08:47:10;;;;;;;10.43;4.10;;;15.30;55.40;;;;;;4780003;29;20099;-79
2021/12/11 08:49:39;;;;;;;7.63;3.88;;;15.20;55.30;;;;;;4779329;29;20058;-75
2021/12/11 08:52:26;;;;;;;10.80;3.40;;;15.10;55.40;;;;;;4810152;29;20078;-78
2021/12/11 08:54:53;;;;;;;6.30;2.83;;;15.00;55.30;;;;;;4794641;29;20436;-78
2021/12/11 08:57:23;;;;;;;7.22;3.75;;;14.90;55.60;;;;;;4794626;29;20050;-79
2021/12/11 08:59:55;;;;;;;7.18;4.20;;;14.80;55.60;;;;;;4794104;29;20134;-78
2021/12/11 09:02:33;;;;;;;7.72;4.63;;;14.70;55.70;;;;;;4794327;29;20046;-77
2021/12/11 09:05:07;;;;;;;9.68;3.65;;;14.70;55.70;;;;;;4809432;29;20417;-79
2021/12/11 09:07:46;;;;;;;7.68;3.33;;;14.60;55.70;;;;;;4794817;29;20464;-80
2021/12/11 09:10:16;;;;;;;7.55;3.42;;;14.60;55.80;;;;;;4779303;29;20080;-79
2021/12/11 09:13:10;;;;;;;6.85;4.03;;;14.50;55.90;;;;;;4794207;29;20460;-79
2021/12/11 09:15:44;;;;;;;8.40;3.28;;;14.50;55.80;;;;;;4794238;29;20046;-82
2021/12/11 09:18:36;;;;;;;6.82;3.85;;;14.40;55.90;;;;;;4793814;29;20047;-80
2021/12/11 09:21:25;;;;;;;6.18;3.58;;;14.40;55.80;;;;;;4757080;30;20052;-80
2021/12/11 09:24:09;;;;;;;6.03;3.42;;;14.30;55.90;;;;;;4787440;30;20055;-77
2021/12/11 09:26:51;;;;;;;4.40;3.00;;;14.30;56.20;;;;;;4743356;30;20125;-78
2021/12/11 09:29:23;;;;;;;4.70;3.03;;;14.20;56.30;;;;;;4772203;30;20055;-80
2021/12/11 09:32:01;;;;;;;4.47;3.10;;;14.10;56.40;;;;;;4757365;30;20364;-80
2021/12/11 09:34:32;;;;;;;4.70;2.58;;;14.10;56.50;;;;;;4772057;30;20110;-79
2021/12/11 09:37:01;;;;;;;6.55;3.10;;;14.10;56.60;;;;;;4757090;30;20130;-81
2021/12/11 09:39:33;;;;;;;4.50;2.83;;;14.00;56.60;;;;;;4757016;30;20458;-77
2021/12/11 09:41:58;;;;;;;5.20;2.80;;;14.00;56.60;;;;;;4771966;30;20412;-80
2021/12/11 09:44:30;;;;;;;7.18;3.38;;;14.00;56.60;;;;;;4760522;30;20052;-75
2021/12/11 09:47:09;;;;;;;6.18;3.63;;;14.00;56.50;;;;;;4758554;30;20051;-76
2021/12/11 09:49:42;;;;;;;11.10;3.20;;;14.10;56.40;;;;;;4771079;30;20087;-79
2021/12/11 09:52:23;;;;;;;9.65;4.30;;;13.80;57.20;;;;;;4792781;29;20371;-75
2021/12/11 09:55:01;;;;;;;9.85;4.00;;;13.50;56.30;;;;;;4809652;29;20053;-81
2021/12/11 09:57:31;;;;;;;11.77;3.60;;;13.60;58.40;;;;;;4809072;29;20070;-73
2021/12/11 09:59:59;;;;;;;13.30;4.10;;;13.70;58.80;;;;;;4808922;29;20069;-73
2021/12/11 10:02:32;;;;;;;16.00;3.83;;;13.80;59.00;;;;;;4809398;29;20103;-74
2021/12/11 10:05:09;;;;;;;9.25;3.90;;;13.70;56.50;;;;;;4809369;29;20051;-71
2021/12/11 10:07:39;;;;;;;37.33;12.77;;;13.70;59.30;;;;;;4809064;29;20065;-78
2021/12/11 10:10:08;;;;;;;61.92;28.42;;;13.80;60.10;;;;;;4809289;29;20471;-75
2021/12/11 10:12:38;;;;;;;44.38;19.02;;;13.80;62.80;;;;;;4809409;29;20112;-77
2021/12/11 10:15:24;;;;;;;34.63;17.58;;;13.90;64.10;;;;;;4809316;29;20082;-78
2021/12/11 10:18:18;;;;;;;28.63;13.00;;;13.90;66.60;;;;;;4808837;29;20474;-75
2021/12/11 10:20:55;;;;;;;27.45;9.00;;;13.90;60.30;;;;;;4809231;29;20070;-77
2021/12/11 10:23:28;;;;;;;19.80;7.85;;;13.40;61.50;;;;;;4807910;29;20130;-73
2021/12/11 10:25:56;;;;;;;17.88;7.45;;;13.50;63.70;;;;;;4792819;29;20058;-75
2021/12/11 10:28:27;;;;;;;16.50;7.28;;;13.70;63.80;;;;;;4793373;29;20059;-77
2021/12/11 10:31:01;;;;;;;31.95;8.85;;;13.40;61.00;;;;;;4807931;29;20053;-75
2021/12/11 10:33:31;;;;;;;21.00;10.15;;;13.50;61.90;;;;;;4792727;29;20138;-72
2021/12/11 10:36:01;;;;;;;19.42;9.15;;;13.60;61.40;;;;;;4807439;29;20050;-75
2021/12/11 10:38:28;;;;;;;21.20;10.10;;;13.60;60.00;;;;;;4799211;29;20042;-73
2021/12/11 10:40:57;;;;;;;14.75;9.88;;;13.70;58.10;;;;;;4784097;29;20059;-76
2021/12/11 10:43:28;;;;;;;16.52;10.45;;;13.70;57.10;;;;;;4802126;29;20133;-74
2021/12/11 10:45:54;;;;;;;17.90;10.60;;;13.80;55.80;;;;;;4804771;29;20055;-76
2021/12/11 10:48:24;;;;;;;16.90;10.68;;;13.80;54.60;;;;;;4808460;29;20051;-79
2021/12/11 10:50:56;;;;;;;19.52;10.90;;;13.70;54.10;;;;;;4790646;30;20062;-77
2021/12/11 10:53:25;;;;;;;15.60;10.77;;;13.70;54.10;;;;;;4790394;30;20043;-79
2021/12/11 10:55:53;;;;;;;17.88;10.40;;;13.70;55.10;;;;;;4790229;30;20458;-75
2021/12/11 10:58:33;;;;;;;17.05;9.77;;;13.70;54.80;;;;;;4790172;30;20410;-78
2021/12/11 11:01:11;;;;;;;21.77;9.93;;;13.70;54.80;;;;;;4790468;30;20059;-74
2021/12/11 11:03:40;;;;;;;16.63;10.15;;;13.70;55.10;;;;;;4796166;29;20038;-80
2021/12/11 11:06:07;;;;;;;20.98;10.85;;;13.70;55.30;;;;;;4808353;29;20224;-74
2021/12/11 11:08:33;;;;;;;32.75;12.00;;;13.70;55.10;;;;;;4808074;29;20065;-76
2021/12/11 11:11:06;;;;;;;21.73;11.18;;;13.80;55.00;;;;;;4808244;29;20122;-76
2021/12/11 11:13:33;;;;;;;20.48;10.75;;;13.70;56.60;;;;;;4808166;29;20114;-80
2021/12/11 11:15:59;;;;;;;16.65;10.10;;;13.70;59.10;;;;;;4807841;29;20062;-76
2021/12/11 11:18:28;;;;;;;16.40;8.00;;;13.70;59.80;;;;;;4808051;29;20055;-74
2021/12/11 11:21:18;;;;;;;16.13;7.80;;;13.80;59.60;;;;;;4807908;29;20160;-77
2021/12/11 11:23:45;;;;;;;12.30;7.22;;;14.00;59.30;;;;;;4808127;29;20053;-76
2021/12/11 11:26:16;;;;;;;11.35;6.45;;;14.20;58.80;;;;;;4807606;29;20097;-76
2021/12/11 11:28:42;;;;;;;12.57;5.47;;;14.40;58.60;;;;;;4808569;29;20055;-75
2021/12/11 11:31:17;;;;;;;14.15;4.97;;;14.70;58.40;;;;;;4777058;30;20083;-77
2021/12/11 11:33:45;;;;;;;7.60;4.20;;;14.80;58.30;;;;;;4789967;29;20050;-79
2021/12/11 11:36:14;;;;;;;7.13;4.07;;;14.90;58.30;;;;;;4789432;29;20392;-76
2021/12/11 11:38:47;;;;;;;9.35;3.95;;;15.00;58.40;;;;;;4790242;29;20061;-75
2021/12/11 11:41:22;;;;;;;9.60;3.58;;;15.00;59.20;;;;;;4803511;29;20111;-75
2021/12/11 11:43:48;;;;;;;12.13;3.65;;;15.00;58.70;;;;;;4803988;29;20066;-78
2021/12/11 11:46:18;;;;;;;12.35;3.72;;;15.00;59.00;;;;;;4793056;29;20100;-78
2021/12/11 11:48:50;;;;;;;10.90;4.28;;;15.00;59.30;;;;;;4791827;29;20123;-79
2021/12/11 11:51:30;;;;;;;10.65;5.10;;;15.00;59.10;;;;;;4791553;29;20059;-78
2021/12/11 11:53:57;;;;;;;15.07;4.63;;;15.10;57.70;;;;;;4808060;29;20086;-78
2021/12/11 11:56:31;;;;;;;10.35;3.97;;;14.60;59.50;;;;;;4807682;29;20046;-78
2021/12/11 11:58:57;;;;;;;13.93;3.85;;;14.80;60.00;;;;;;4776753;29;20042;-79
2021/12/11 12:01:30;;;;;;;9.02;4.38;;;14.70;60.10;;;;;;4807719;29;20057;-79
2021/12/11 12:03:57;;;;;;;9.50;3.30;;;14.90;59.40;;;;;;4807730;29;20046;-76
2021/12/11 12:06:25;;;;;;;12.10;3.90;;;14.90;60.50;;;;;;4791706;29;20058;-77
2021/12/11 12:08:54;;;;;;;10.35;3.03;;;15.00;60.70;;;;;;4807735;29;20078;-76
2021/12/11 12:11:22;;;;;;;12.70;3.40;;;15.10;60.60;;;;;;4807792;29;20046;-76
2021/12/11 12:13:48;;;;;;;10.35;3.03;;;15.20;60.50;;;;;;4791838;29;20463;-76
2021/12/11 12:16:14;;;;;;;10.13;2.88;;;15.40;60.30;;;;;;4791733;29;20086;-77
2021/12/11 12:18:42;;;;;;;8.18;2.97;;;15.50;59.90;;;;;;4777233;29;20135;-76
2021/12/11 12:21:11;;;;;;;6.05;2.30;;;15.60;59.70;;;;;;4793355;29;20055;-76
2021/12/11 12:23:37;;;;;;;8.63;2.75;;;15.70;59.90;;;;;;4811077;29;20050;-75
2021/12/11 12:26:11;;;;;;;7.35;2.80;;;15.80;59.70;;;;;;4794980;29;20062;-74
2021/12/11 12:28:37;;;;;;;7.95;2.17;;;15.90;60.00;;;;;;4810402;29;20471;-79
2021/12/11 12:31:11;;;;;;;7.55;2.92;;;16.00;60.00;;;;;;4779883;29;20057;-78
2021/12/11 12:33:37;;;;;;;10.48;2.45;;;16.10;59.60;;;;;;4810939;29;20118;-75
2021/12/11 12:36:04;;;;;;;11.48;2.95;;;16.10;59.90;;;;;;4811109;29;20412;-75
2021/12/11 12:38:31;;;;;;;10.48;3.05;;;16.20;59.90;;;;;;4810857;29;20058;-78
2021/12/11 12:41:17;;;;;;;11.73;3.10;;;16.20;60.10;;;;;;4810985;29;20066;-80
2021/12/11 12:46:42;;;;;;;24.27;5.10;;;16.30;59.40;;;;;;4807611;29;20408;-80
2021/12/11 12:49:08;;;;;;;21.77;3.85;;;16.40;58.90;;;;;;4794754;29;20087;-81
2021/12/11 12:51:35;;;;;;;12.90;3.55;;;16.40;58.90;;;;;;4806586;29;20043;-82
2021/12/11 12:54:04;;;;;;;12.80;3.75;;;16.40;59.00;;;;;;4791667;30;20055;-84
2021/12/11 12:56:39;;;;;;;14.20;3.47;;;16.40;58.90;;;;;;4776487;30;20095;-82
2021/12/11 12:59:31;;;;;;;9.63;2.83;;;16.50;58.70;;;;;;4791561;30;20055;-84
2021/12/11 13:02:08;;;;;;;10.88;3.15;;;16.40;58.40;;;;;;4776640;30;20039;-83
2021/12/11 13:04:42;;;;;;;13.30;3.80;;;16.50;58.30;;;;;;4762240;30;20047;-83
2021/12/11 13:07:12;;;;;;;;;;;16.40;57.90;;;;;;4762197;30;20114;-87
2021/12/11 13:09:57;;;;;;;12.52;3.13;;;16.40;58.30;;;;;;4776325;30;19921;-83
2021/12/11 13:12:26;;;;;;;17.73;3.38;;;16.50;58.70;;;;;;4761672;30;20055;-83
2021/12/11 13:14:54;;;;;;;11.85;3.28;;;16.40;58.90;;;;;;4761972;30;20055;-82
2021/12/11 13:17:33;;;;;;;9.13;3.35;;;16.40;59.10;;;;;;4762100;30;20142;-83